createdAt,value
2017-10-23T00:01:07.711Z,83.76
2017-10-23T00:03:35.948Z,83.83
2017-10-23T00:06:04.186Z,83.82
2017-10-23T00:08:32.446Z,83.83
2017-10-23T00:11:01.457Z,83.63
2017-10-23T00:13:30.457Z,83.58
2017-10-23T00:15:58.711Z,83.43
2017-10-23T00:18:27.718Z,83.42
2017-10-23T00:20:56.007Z,83.24
2017-10-23T00:23:24.233Z,83.64
2017-10-23T00:25:52.471Z,83.50
2017-10-23T00:28:20.711Z,83.68
2017-10-23T00:30:49.736Z,83.92
2017-10-23T00:33:17.967Z,83.87
2017-10-23T00:35:46.970Z,83.91
2017-10-23T00:38:15.982Z,83.98
2017-10-23T00:40:44.218Z,84.05
2017-10-23T00:43:12.472Z,83.99
2017-10-23T00:45:40.714Z,83.90
2017-10-23T00:48:08.967Z,84.13
2017-10-23T00:50:37.966Z,84.22
2017-10-23T00:53:06.220Z,83.89
2017-10-23T00:55:34.460Z,84.03
2017-10-23T00:58:02.736Z,84.04
2017-10-23T01:00:30.993Z,84.14
2017-10-23T01:02:59.239Z,84.30
2017-10-23T01:05:28.240Z,84.60
2017-10-23T01:07:56.489Z,84.77
2017-10-23T01:10:24.721Z,84.45
2017-10-23T01:12:52.986Z,84.65
2017-10-23T01:15:21.221Z,84.54
2017-10-23T01:17:50.232Z,84.72
2017-10-23T01:20:18.477Z,84.49
2017-10-23T01:22:46.722Z,84.09
2017-10-23T01:25:14.971Z,84.31
2017-10-23T01:27:43.210Z,84.16
2017-10-23T01:30:12.226Z,84.26
2017-10-23T01:32:40.468Z,84.58
2017-10-23T01:35:08.719Z,84.74
2017-10-23T01:37:36.953Z,85.08
2017-10-23T01:40:05.201Z,84.86
2017-10-23T01:42:34.209Z,84.92
2017-10-23T01:45:03.230Z,84.72
2017-10-23T01:47:31.470Z,84.88
2017-10-23T01:50:00.472Z,84.64
2017-10-23T01:52:28.731Z,84.53
2017-10-23T01:54:57.731Z,84.50
2017-10-23T01:57:26.750Z,84.17
2017-10-23T01:59:54.991Z,83.66
2017-10-23T02:02:23.233Z,83.71
2017-10-23T02:04:51.470Z,83.58
2017-10-23T02:07:19.717Z,83.32
2017-10-23T02:09:48.717Z,83.22
2017-10-23T02:12:17.739Z,83.29
2017-10-23T02:14:45.975Z,83.26
2017-10-23T02:17:14.226Z,83.01
2017-10-23T02:19:42.466Z,82.91
2017-10-23T02:22:10.706Z,82.87
2017-10-23T02:24:39.706Z,82.92
2017-10-23T02:27:08.714Z,82.84
2017-10-23T02:29:36.955Z,82.84
2017-10-23T02:32:05.212Z,82.76
2017-10-23T02:34:33.443Z,82.67
2017-10-23T02:37:01.711Z,83.00
2017-10-23T02:39:29.950Z,83.10
2017-10-23T02:41:58.193Z,82.94
2017-10-23T02:44:26.438Z,83.30
2017-10-23T02:46:54.675Z,83.28
2017-10-23T02:49:22.912Z,83.17
2017-10-23T02:51:51.159Z,83.33
2017-10-23T02:54:19.407Z,83.72
2017-10-23T02:56:47.651Z,83.64
2017-10-23T02:59:15.894Z,83.72
2017-10-23T03:01:44.142Z,83.64
2017-10-23T03:04:12.381Z,83.50
2017-10-23T03:06:40.636Z,83.32
2017-10-23T03:09:08.889Z,83.37
2017-10-23T03:11:37.125Z,83.54
2017-10-23T03:14:05.391Z,83.72
2017-10-23T03:16:33.636Z,84.00
2017-10-23T03:19:01.866Z,84.00
2017-10-23T03:21:30.878Z,84.01
2017-10-23T03:23:59.120Z,83.98
2017-10-23T03:26:27.366Z,84.39
2017-10-23T03:28:55.601Z,84.31
2017-10-23T03:31:23.871Z,84.23
2017-10-23T03:33:52.858Z,84.09
2017-10-23T03:36:21.873Z,83.99
2017-10-23T03:38:50.115Z,83.81
2017-10-23T03:41:18.354Z,83.93
2017-10-23T03:43:46.590Z,84.30
2017-10-23T03:46:14.858Z,84.58
2017-10-23T03:48:43.854Z,84.40
2017-10-23T03:51:12.876Z,84.64
2017-10-23T03:53:41.115Z,84.76
2017-10-23T03:56:10.142Z,84.49
2017-10-23T03:58:38.389Z,84.91
2017-10-23T04:01:07.395Z,84.72
2017-10-23T04:03:35.642Z,84.69
2017-10-23T04:06:04.669Z,84.39
2017-10-23T04:08:32.920Z,84.52
2017-10-23T04:11:02.168Z,84.12
2017-10-23T04:13:30.413Z,84.04
2017-10-23T04:15:58.654Z,84.17
2017-10-23T04:18:26.907Z,83.87
2017-10-23T04:20:55.149Z,84.30
2017-10-23T04:23:23.385Z,83.76
2017-10-23T04:25:52.393Z,83.79
2017-10-23T04:28:21.402Z,83.71
2017-10-23T04:30:49.649Z,83.67
2017-10-23T04:33:17.893Z,83.77
2017-10-23T04:35:46.134Z,83.57
2017-10-23T04:38:14.378Z,83.60
2017-10-23T04:40:43.383Z,83.89
2017-10-23T04:43:12.399Z,83.72
2017-10-23T04:45:40.646Z,83.76
2017-10-23T04:48:09.656Z,83.86
2017-10-23T04:50:37.901Z,83.95
2017-10-23T04:53:06.161Z,83.89
2017-10-23T04:55:35.159Z,83.84
2017-10-23T04:58:03.412Z,83.60
2017-10-23T05:00:31.645Z,83.54
2017-10-23T05:02:59.899Z,83.64
2017-10-23T05:05:28.132Z,84.02
2017-10-23T05:07:56.379Z,83.75
2017-10-23T05:10:24.616Z,83.83
2017-10-23T05:12:52.884Z,83.78
2017-10-23T05:15:21.113Z,83.85
2017-10-23T05:17:49.363Z,83.74
2017-10-23T05:23:49.890Z,83.58
2017-10-23T05:26:18.139Z,83.63
2017-10-23T05:28:46.417Z,83.70
2017-10-23T05:31:14.652Z,83.83
2017-10-23T05:33:42.896Z,84.01
2017-10-23T05:36:11.919Z,83.90
2017-10-23T05:38:40.168Z,84.24
2017-10-23T05:41:08.422Z,84.71
2017-10-23T05:43:36.696Z,84.89
2017-10-23T05:46:05.703Z,85.49
2017-10-23T05:48:33.954Z,85.42
2017-10-23T05:51:02.202Z,85.46
2017-10-23T05:53:30.445Z,85.16
2017-10-23T05:55:59.490Z,85.45
2017-10-23T05:58:27.718Z,85.60
2017-10-23T06:00:56.722Z,85.34
2017-10-23T06:03:24.971Z,85.51
2017-10-23T06:05:53.214Z,85.56
2017-10-23T06:08:21.463Z,85.26
2017-10-23T06:10:49.702Z,85.73
2017-10-23T06:13:18.709Z,85.61
2017-10-23T06:15:47.709Z,85.59
2017-10-23T06:18:15.956Z,85.52
2017-10-23T06:20:44.201Z,85.33
2017-10-23T06:23:12.446Z,85.02
2017-10-23T06:25:40.694Z,84.92
2017-10-23T06:28:09.706Z,85.03
2017-10-23T06:30:37.943Z,84.77
2017-10-23T06:33:06.210Z,84.82
2017-10-23T06:35:34.451Z,84.86
2017-10-23T06:38:02.689Z,84.65
2017-10-23T06:40:31.711Z,84.45
2017-10-23T06:42:59.957Z,84.48
2017-10-23T06:45:28.205Z,84.26
2017-10-23T06:47:56.442Z,83.88
2017-10-23T06:50:24.690Z,83.77
2017-10-23T06:52:53.706Z,84.32
2017-10-23T06:55:21.950Z,83.72
2017-10-23T06:57:50.962Z,83.63
2017-10-23T07:00:19.219Z,83.62
2017-10-23T07:02:48.217Z,83.71
2017-10-23T07:05:17.229Z,83.47
2017-10-23T07:07:45.466Z,83.36
2017-10-23T07:10:13.717Z,83.15
2017-10-23T07:12:41.957Z,83.07
2017-10-23T07:15:10.194Z,83.03
2017-10-23T07:17:38.435Z,82.92
2017-10-23T07:20:06.683Z,82.95
2017-10-23T07:22:34.926Z,82.82
2017-10-23T07:25:03.943Z,82.84
2017-10-23T07:27:32.185Z,82.84
2017-10-23T07:30:00.430Z,82.69
2017-10-23T07:32:28.661Z,82.85
2017-10-23T07:34:56.914Z,82.72
2017-10-23T07:37:25.154Z,82.80
2017-10-23T07:39:53.390Z,82.50
2017-10-23T07:42:21.646Z,82.28
2017-10-23T07:44:50.656Z,82.37
2017-10-23T07:47:19.666Z,82.40
2017-10-23T07:49:47.941Z,81.85
2017-10-23T07:52:16.927Z,81.80
2017-10-23T07:54:45.167Z,82.05
2017-10-23T07:57:13.410Z,81.53
2017-10-23T07:59:41.645Z,81.60
2017-10-23T08:02:09.897Z,81.83
2017-10-23T08:04:38.150Z,82.04
2017-10-23T08:07:06.430Z,82.26
2017-10-23T08:09:34.662Z,82.10
2017-10-23T08:12:02.971Z,81.87
2017-10-23T08:14:31.214Z,81.60
2017-10-23T08:16:59.459Z,81.85
2017-10-23T08:19:28.463Z,81.66
2017-10-23T08:21:57.485Z,81.48
2017-10-23T08:24:25.714Z,81.41
2017-10-23T08:26:54.725Z,81.55
2017-10-23T08:29:23.738Z,81.17
2017-10-23T08:31:51.991Z,80.72
2017-10-23T08:34:21.005Z,80.67
2017-10-23T08:36:49.245Z,80.77
2017-10-23T08:39:17.485Z,80.57
2017-10-23T08:41:45.738Z,80.63
2017-10-23T08:44:13.991Z,79.78
2017-10-23T08:46:42.234Z,79.50
2017-10-23T08:49:10.487Z,79.48
2017-10-23T08:51:38.726Z,78.79
2017-10-23T08:54:06.983Z,78.51
2017-10-23T08:56:35.987Z,78.36
2017-10-23T08:59:04.235Z,78.42
2017-10-23T09:01:32.477Z,78.68
2017-10-23T09:04:00.728Z,78.01
2017-10-23T09:06:28.967Z,78.19
2017-10-23T09:08:57.976Z,78.14
2017-10-23T09:11:26.975Z,77.94
2017-10-23T09:13:55.255Z,77.58
2017-10-23T09:16:23.490Z,76.45
2017-10-23T09:18:51.753Z,76.04
2017-10-23T09:21:20.006Z,75.54
2017-10-23T09:23:48.252Z,74.42
2017-10-23T09:26:16.502Z,73.64
2017-10-23T09:28:45.515Z,73.89
2017-10-23T09:31:14.530Z,74.47
2017-10-23T09:33:42.766Z,73.75
2017-10-23T09:36:11.789Z,74.38
2017-10-23T09:38:40.033Z,73.57
2017-10-23T09:41:09.044Z,74.29
2017-10-23T09:43:38.059Z,74.35
2017-10-23T09:46:06.317Z,73.87
2017-10-23T09:48:34.567Z,72.99
2017-10-23T09:51:03.580Z,72.38
2017-10-23T09:53:32.587Z,72.86
2017-10-23T09:56:00.868Z,71.06
2017-10-23T09:58:29.124Z,69.91
2017-10-23T10:00:58.123Z,70.16
2017-10-23T10:03:26.375Z,71.03
2017-10-23T10:05:55.398Z,71.12
2017-10-23T10:08:23.650Z,70.70
2017-10-23T10:10:52.661Z,69.59
2017-10-23T10:13:20.915Z,69.45
2017-10-23T10:15:49.147Z,69.40
2017-10-23T10:18:17.406Z,70.49
2017-10-23T10:20:45.655Z,69.52
2017-10-23T10:23:14.676Z,69.47
2017-10-23T10:25:42.919Z,70.21
2017-10-23T10:28:11.938Z,70.63
2017-10-23T10:30:40.186Z,69.93
2017-10-23T10:33:09.209Z,69.72
2017-10-23T10:35:37.471Z,69.90
2017-10-23T10:38:05.748Z,69.46
2017-10-23T10:40:33.999Z,69.88
2017-10-23T10:43:03.014Z,69.68
2017-10-23T10:45:31.276Z,69.27
2017-10-23T10:48:00.287Z,69.04
2017-10-23T10:50:28.541Z,68.90
2017-10-23T10:52:57.556Z,69.68
2017-10-23T10:55:25.806Z,69.34
2017-10-23T10:57:54.819Z,69.09
2017-10-23T11:00:23.075Z,68.84
2017-10-23T11:02:52.098Z,69.29
2017-10-23T11:05:20.341Z,68.89
2017-10-23T11:07:49.367Z,69.63
2017-10-23T11:10:17.623Z,70.21
2017-10-23T11:12:45.866Z,70.23
2017-10-23T11:15:14.122Z,70.79
2017-10-23T11:17:42.383Z,71.14
2017-10-23T11:20:10.629Z,71.49
2017-10-23T11:22:38.870Z,72.99
2017-10-23T11:25:07.108Z,74.30
2017-10-23T11:27:35.355Z,73.93
2017-10-23T11:30:03.598Z,73.96
2017-10-23T11:32:31.852Z,73.47
2017-10-23T11:35:00.099Z,73.00
2017-10-23T11:37:28.346Z,72.41
2017-10-23T11:39:57.359Z,70.40
2017-10-23T11:42:25.615Z,69.94
2017-10-23T11:44:54.623Z,69.42
2017-10-23T11:47:22.892Z,67.98
2017-10-23T11:49:51.893Z,63.99
2017-10-23T11:52:20.152Z,65.87
2017-10-23T11:54:49.161Z,65.90
2017-10-23T11:57:17.419Z,66.30
2017-10-23T11:59:46.430Z,67.33
2017-10-23T12:02:14.681Z,67.82
2017-10-23T12:04:43.685Z,66.91
2017-10-23T12:07:11.943Z,67.17
2017-10-23T12:09:40.951Z,67.07
2017-10-23T12:12:09.970Z,66.60
2017-10-23T12:14:38.223Z,67.87
2017-10-23T12:17:06.486Z,67.62
2017-10-23T12:19:35.500Z,67.30
2017-10-23T12:22:03.755Z,67.10
2017-10-23T12:24:32.777Z,67.00
2017-10-23T12:27:01.052Z,67.14
2017-10-23T12:29:29.295Z,67.56
2017-10-23T12:31:58.306Z,68.21
2017-10-23T12:34:26.563Z,67.73
2017-10-23T12:36:55.587Z,67.91
2017-10-23T12:39:23.844Z,68.31
2017-10-23T12:41:52.855Z,68.71
2017-10-23T12:44:21.110Z,68.15
2017-10-23T12:46:50.124Z,67.85
2017-10-23T12:49:18.374Z,67.95
2017-10-23T12:51:47.386Z,67.71
2017-10-23T12:54:15.643Z,68.17
2017-10-23T12:56:44.649Z,67.28
2017-10-23T12:59:12.906Z,67.37
2017-10-23T13:01:41.925Z,67.58
2017-10-23T13:04:10.176Z,67.36
2017-10-23T13:06:39.191Z,67.52
2017-10-23T13:09:07.449Z,67.68
2017-10-23T13:11:36.457Z,67.85
2017-10-23T13:14:04.705Z,67.29
2017-10-23T13:16:33.832Z,66.83
2017-10-23T13:19:02.094Z,67.03
2017-10-23T13:21:31.107Z,67.71
2017-10-23T13:23:59.365Z,67.57
2017-10-23T13:26:28.374Z,67.78
2017-10-23T13:28:56.647Z,67.69
2017-10-23T13:31:24.892Z,67.34
2017-10-23T13:33:53.914Z,67.97
2017-10-23T13:36:22.171Z,68.30
2017-10-23T13:38:51.178Z,69.01
2017-10-23T13:41:19.433Z,69.37
2017-10-23T13:43:48.454Z,69.39
2017-10-23T13:46:16.717Z,69.69
2017-10-23T13:48:45.722Z,69.85
2017-10-23T13:51:13.973Z,71.28
2017-10-23T13:53:42.982Z,70.83
2017-10-23T13:56:11.233Z,71.28
2017-10-23T13:58:40.256Z,71.94
2017-10-23T14:01:08.514Z,70.75
2017-10-23T14:03:37.518Z,69.52
2017-10-23T14:06:05.779Z,69.21
2017-10-23T14:08:34.789Z,69.94
2017-10-23T14:11:03.064Z,68.91
2017-10-23T14:13:31.320Z,68.87
2017-10-23T14:16:00.345Z,68.74
2017-10-23T14:18:28.590Z,68.04
2017-10-23T14:20:57.602Z,67.69
2017-10-23T14:23:25.846Z,67.03
2017-10-23T14:25:54.861Z,66.55
2017-10-23T14:28:23.118Z,67.03
2017-10-23T14:30:52.145Z,67.38
2017-10-23T14:33:20.386Z,67.70
2017-10-23T14:35:48.646Z,67.35
2017-10-23T14:38:16.901Z,67.63
2017-10-23T14:40:45.159Z,64.96
2017-10-23T14:43:13.398Z,65.72
2017-10-23T14:45:42.424Z,66.70
2017-10-23T14:48:10.663Z,68.15
2017-10-23T14:50:39.678Z,66.89
2017-10-23T14:53:07.921Z,67.14
2017-10-23T14:55:36.954Z,66.28
2017-10-23T14:58:05.195Z,65.75
2017-10-23T15:00:34.214Z,64.07
2017-10-23T15:03:02.475Z,64.28
2017-10-23T15:05:31.484Z,66.77
2017-10-23T15:07:59.731Z,66.96
2017-10-23T15:10:28.753Z,68.05
2017-10-23T15:12:57.006Z,67.91
2017-10-23T15:15:26.020Z,68.95
2017-10-23T15:17:54.278Z,69.04
2017-10-23T15:20:23.294Z,69.54
2017-10-23T15:22:51.551Z,69.75
2017-10-23T15:25:20.558Z,69.43
2017-10-23T15:27:48.825Z,69.87
2017-10-23T15:30:17.061Z,70.83
2017-10-23T15:32:46.078Z,70.80
2017-10-23T15:35:14.360Z,71.09
2017-10-23T15:37:42.609Z,71.23
2017-10-23T15:40:11.628Z,71.50
2017-10-23T15:42:39.876Z,71.11
2017-10-23T15:45:08.889Z,71.58
2017-10-23T15:47:37.145Z,71.31
2017-10-23T15:50:06.162Z,71.84
2017-10-23T15:52:34.434Z,71.84
2017-10-23T15:55:02.674Z,71.79
2017-10-23T15:57:30.937Z,72.34
2017-10-23T15:59:59.189Z,72.34
2017-10-23T16:02:27.538Z,72.34
2017-10-23T16:04:55.786Z,72.43
2017-10-23T16:07:24.808Z,72.36
2017-10-23T16:09:53.050Z,72.49
2017-10-23T16:12:22.070Z,72.54
2017-10-23T16:14:50.350Z,72.82
2017-10-23T16:17:18.603Z,73.12
2017-10-23T16:19:47.615Z,73.32
2017-10-23T16:22:15.871Z,73.69
2017-10-23T16:24:44.878Z,73.77
2017-10-23T16:27:13.134Z,73.92
2017-10-23T16:29:41.383Z,73.97
2017-10-23T16:32:09.631Z,74.29
2017-10-23T16:34:37.868Z,74.32
2017-10-23T16:37:06.884Z,74.45
2017-10-23T16:39:35.118Z,74.81
2017-10-23T16:42:03.367Z,74.80
2017-10-23T16:44:31.615Z,75.08
2017-10-23T16:46:59.861Z,75.13
2017-10-23T16:49:28.864Z,75.32
2017-10-23T16:51:57.124Z,75.47
2017-10-23T16:54:26.123Z,75.59
2017-10-23T16:56:55.129Z,76.04
2017-10-23T16:59:23.365Z,76.11
2017-10-23T17:01:51.612Z,75.86
2017-10-23T17:04:19.858Z,75.95
2017-10-23T17:06:48.350Z,75.90
2017-10-23T17:09:16.632Z,75.90
2017-10-23T17:11:44.874Z,75.98
2017-10-23T17:14:13.879Z,76.04
2017-10-23T17:16:42.122Z,75.96
2017-10-23T17:19:10.367Z,75.88
2017-10-23T17:21:38.601Z,75.89
2017-10-23T17:24:06.853Z,75.78
2017-10-23T17:26:35.104Z,75.91
2017-10-23T17:29:03.354Z,75.84
2017-10-23T17:31:31.590Z,75.98
2017-10-23T17:34:02.596Z,75.89
2017-10-23T17:36:30.851Z,76.41
2017-10-23T17:38:59.112Z,76.38
2017-10-23T17:41:27.350Z,76.73
2017-10-23T17:43:56.367Z,76.71
2017-10-23T17:46:24.608Z,76.59
2017-10-23T17:48:52.857Z,76.54
2017-10-23T17:51:21.102Z,76.84
2017-10-23T17:53:57.281Z,76.79
2017-10-23T17:56:25.531Z,76.76
2017-10-23T17:58:53.775Z,76.91
2017-10-23T18:01:22.019Z,76.64
2017-10-23T18:03:50.355Z,76.80
2017-10-23T18:06:18.593Z,76.90
2017-10-23T18:08:46.842Z,76.77
2017-10-23T18:11:15.078Z,76.96
2017-10-23T18:13:43.326Z,77.05
2017-10-23T18:16:11.637Z,77.22
2017-10-23T18:18:39.877Z,77.22
2017-10-23T18:21:08.119Z,77.33
2017-10-23T18:23:36.375Z,77.23
2017-10-23T18:26:04.608Z,77.09
2017-10-23T18:28:32.850Z,77.23
2017-10-23T18:31:01.086Z,77.28
2017-10-23T18:33:29.387Z,77.20
2017-10-23T18:35:57.617Z,77.62
2017-10-23T18:38:26.629Z,77.77
2017-10-23T18:40:54.873Z,78.02
2017-10-23T18:43:23.920Z,78.42
2017-10-23T18:45:52.162Z,78.71
2017-10-23T18:48:21.175Z,78.69
2017-10-23T18:50:49.437Z,79.06
2017-10-23T18:53:18.434Z,79.19
2017-10-23T18:55:46.679Z,79.82
2017-10-23T18:58:15.695Z,80.03
2017-10-23T19:00:43.943Z,80.03
2017-10-23T19:03:12.196Z,80.21
2017-10-23T19:05:40.434Z,80.48
2017-10-23T19:08:08.688Z,80.83
2017-10-23T19:10:37.703Z,80.69
2017-10-23T19:13:05.958Z,80.90
2017-10-23T19:15:34.955Z,80.85
2017-10-23T19:18:03.978Z,80.94
2017-10-23T19:20:32.218Z,80.95
2017-10-23T19:23:01.236Z,80.96
2017-10-23T19:25:29.469Z,80.85
2017-10-23T19:27:57.712Z,80.84
2017-10-23T19:30:26.007Z,80.65
2017-10-23T19:32:54.247Z,80.81
2017-10-23T19:35:22.494Z,81.09
2017-10-23T19:37:50.735Z,81.20
2017-10-23T19:40:19.031Z,81.05
2017-10-23T19:42:48.031Z,81.20
2017-10-23T19:45:17.086Z,81.25
2017-10-23T19:47:45.340Z,81.36
2017-10-23T19:50:13.584Z,81.47
2017-10-23T19:52:41.842Z,81.29
2017-10-23T19:58:32.210Z,81.26
2017-10-23T20:01:04.812Z,81.45
2017-10-23T20:03:34.557Z,81.53
2017-10-23T20:06:02.881Z,81.54
2017-10-23T20:08:31.204Z,81.72
2017-10-23T20:11:00.313Z,81.46
2017-10-23T20:13:28.687Z,81.48
2017-10-23T20:15:57.070Z,81.51
2017-10-23T20:18:25.405Z,81.42
2017-10-23T20:20:53.738Z,81.55
2017-10-23T20:23:22.048Z,81.51
2017-10-23T20:25:50.344Z,81.81
2017-10-23T20:28:18.659Z,81.81
2017-10-23T20:30:46.953Z,82.09
2017-10-23T20:33:15.258Z,82.20
2017-10-23T20:35:43.620Z,82.16
2017-10-23T20:38:11.963Z,82.50
2017-10-23T20:40:40.313Z,82.31
2017-10-23T20:43:09.200Z,82.16
2017-10-23T20:45:37.521Z,82.28
2017-10-23T20:48:05.858Z,82.12
2017-10-23T20:50:34.204Z,82.40
2017-10-23T20:53:02.582Z,82.34
2017-10-23T20:55:30.914Z,82.36
2017-10-23T20:57:59.229Z,82.25
2017-10-23T21:00:27.546Z,82.15
2017-10-23T21:02:56.667Z,82.09
2017-10-23T21:05:25.074Z,82.10
2017-10-23T21:07:53.423Z,82.11
2017-10-23T21:10:22.749Z,81.96
2017-10-23T21:12:52.867Z,82.25
2017-10-23T21:15:21.203Z,81.79
2017-10-23T21:17:50.295Z,82.01
2017-10-23T21:20:20.393Z,82.26
2017-10-23T21:22:56.048Z,82.34
2017-10-23T21:25:26.137Z,82.35
2017-10-23T21:27:54.513Z,82.53
2017-10-23T21:30:22.763Z,82.70
2017-10-23T21:32:51.009Z,82.58
2017-10-23T21:35:20.020Z,82.88
2017-10-23T21:37:49.033Z,83.20
2017-10-23T21:40:17.993Z,83.03
2017-10-23T21:42:47.231Z,83.26
2017-10-23T21:45:15.866Z,83.15
2017-10-23T21:50:50.113Z,83.76
2017-10-23T21:53:19.127Z,83.50
2017-10-23T21:55:47.375Z,83.59
2017-10-23T21:58:16.386Z,83.75
2017-10-23T22:00:44.626Z,83.71
2017-10-23T22:03:12.877Z,83.59
2017-10-23T22:05:41.132Z,83.55
2017-10-23T22:08:09.382Z,83.56
2017-10-23T22:10:37.628Z,83.47
2017-10-23T22:13:05.874Z,83.46
2017-10-23T22:15:34.117Z,83.54
2017-10-23T22:18:02.366Z,83.46
2017-10-23T22:20:31.375Z,83.03
2017-10-23T22:23:00.391Z,82.97
2017-10-23T22:25:28.642Z,83.06
2017-10-23T22:27:57.665Z,83.08
2017-10-23T22:30:25.906Z,82.99
2017-10-23T22:32:54.919Z,83.32
2017-10-23T22:35:23.175Z,83.34
2017-10-23T22:37:52.178Z,83.49
2017-10-23T22:40:20.458Z,83.30
2017-10-23T22:42:48.702Z,83.33
2017-10-23T22:45:16.958Z,83.44
2017-10-23T22:47:45.200Z,83.64
2017-10-23T22:50:13.454Z,83.54
2017-10-23T22:52:41.694Z,83.83
2017-10-23T22:55:09.947Z,83.91
2017-10-23T22:57:38.190Z,83.89
2017-10-23T23:00:06.446Z,84.00
2017-10-23T23:02:35.459Z,84.08
2017-10-23T23:05:03.705Z,84.20
2017-10-23T23:07:32.721Z,84.21
2017-10-23T23:10:00.973Z,84.27
2017-10-23T23:12:29.983Z,84.17
2017-10-23T23:14:58.235Z,84.41
2017-10-23T23:17:26.478Z,84.61
2017-10-23T23:19:54.727Z,84.44
2017-10-23T23:22:22.965Z,84.23
2017-10-23T23:24:51.984Z,84.14
2017-10-23T23:27:20.229Z,84.48
2017-10-23T23:29:49.243Z,84.32
2017-10-23T23:32:18.263Z,84.27
2017-10-23T23:34:46.506Z,84.16
2017-10-23T23:37:15.522Z,83.97
2017-10-23T23:39:43.763Z,83.79
2017-10-23T23:42:12.775Z,83.81
2017-10-23T23:44:41.015Z,83.92
2017-10-23T23:47:10.031Z,84.07
2017-10-23T23:49:39.038Z,84.06
2017-10-23T23:52:07.292Z,84.03
2017-10-23T23:54:36.308Z,83.72
2017-10-23T23:57:04.557Z,83.86
2017-10-23T23:59:32.806Z,83.75
